Time;durP1;ratioP1;P1;durP2;ratioP2;P2;SDS_P1;SDS_P2;PMS_P1;PMS_P2;Temp;Humidity;BMP_temperature;BMP_pressure;BME280_temperature;BME280_humidity;BME280_pressure;Samples;Min_cycle;Max_cycle;Signal;HPM_P1;HPM_P2
2022/05/02 00:01:37;;;;;;;18.40;16.60;;;21.50;74.80;;;;;;5925432;29;89526;-69
2022/05/02 00:04:39;;;;;;;18.27;16.55;;;21.50;74.80;;;;;;5925337;29;89111;-70
2022/05/02 00:07:41;;;;;;;18.90;17.10;;;21.50;74.80;;;;;;5925271;29;87954;-70
2022/05/02 00:10:44;;;;;;;18.40;16.63;;;21.50;74.80;;;;;;5925329;29;88137;-71
2022/05/02 00:13:46;;;;;;;18.73;16.92;;;21.50;74.80;;;;;;5924461;29;89489;-70
2022/05/02 00:16:48;;;;;;;17.50;15.90;;;21.50;74.80;;;;;;5924697;29;89133;-70
2022/05/02 00:19:50;;;;;;;18.58;16.77;;;21.50;74.80;;;;;;5924092;29;90052;-71
2022/05/02 00:22:52;;;;;;;18.02;16.23;;;21.50;74.80;;;;;;5924709;29;89129;-70
2022/05/02 00:25:55;;;;;;;18.38;16.58;;;21.50;74.80;;;;;;5924914;29;89119;-71
2022/05/02 00:28:57;;;;;;;18.55;16.73;;;21.50;74.70;;;;;;5924442;29;89211;-71
2022/05/02 00:31:59;;;;;;;17.92;16.23;;;21.50;74.60;;;;;;5924628;29;89284;-71
2022/05/02 00:35:01;;;;;;;18.17;16.48;;;21.50;74.60;;;;;;5924703;29;89078;-70
2022/05/02 00:38:05;;;;;;;18.65;16.85;;;21.50;74.70;;;;;;5924612;29;89218;-71
2022/05/02 00:41:09;;;;;;;18.65;16.85;;;21.50;74.70;;;;;;5925283;29;88430;-70
2022/05/02 00:44:11;;;;;;;18.55;16.75;;;21.50;74.70;;;;;;5924663;29;89121;-70
2022/05/02 00:47:15;;;;;;;19.23;17.35;;;21.50;74.70;;;;;;5923601;29;89421;-70
2022/05/02 00:50:18;;;;;;;18.75;16.95;;;21.50;74.80;;;;;;5923849;29;89928;-71
2022/05/02 00:53:22;;;;;;;18.10;16.30;;;21.50;74.70;;;;;;5924610;29;89084;-70
2022/05/02 00:56:25;;;;;;;18.35;16.58;;;21.50;74.70;;;;;;5924747;29;88668;-71
2022/05/02 00:59:28;;;;;;;17.63;15.93;;;21.50;74.80;;;;;;5923914;29;88037;-71
2022/05/02 01:02:30;;;;;;;18.33;16.52;;;21.40;74.70;;;;;;5924371;29;89098;-71
2022/05/02 01:05:36;;;;;;;17.98;16.27;;;21.50;74.80;;;;;;5924126;29;89134;-71
2022/05/02 01:08:58;;;;;;;18.23;16.42;;;21.50;74.80;;;;;;5923870;29;88769;-71
2022/05/02 01:12:01;;;;;;;18.45;16.75;;;21.50;74.70;;;;;;5924960;29;88558;-71
2022/05/02 01:15:03;;;;;;;17.95;16.25;;;21.50;74.70;;;;;;5924090;29;89133;-71
2022/05/02 01:18:05;;;;;;;17.48;15.88;;;21.50;74.70;;;;;;5924036;29;89253;-72
2022/05/02 01:21:10;;;;;;;18.05;16.35;;;21.50;74.60;;;;;;5923569;29;90425;-72
2022/05/02 01:24:13;;;;;;;17.55;15.85;;;21.50;74.70;;;;;;5923866;29;89037;-71
2022/05/02 01:27:16;;;;;;;17.48;15.82;;;21.50;74.50;;;;;;5924074;29;89082;-71
2022/05/02 01:30:18;;;;;;;17.48;15.77;;;21.50;74.60;;;;;;5924183;29;88158;-71
2022/05/02 01:33:20;;;;;;;17.35;15.65;;;21.50;74.70;;;;;;5924337;29;88044;-70
2022/05/02 01:36:24;;;;;;;18.25;16.52;;;21.50;74.70;;;;;;5924006;29;89233;-71
2022/05/02 01:39:26;;;;;;;17.50;15.90;;;21.50;74.70;;;;;;5923581;29;89100;-72
2022/05/02 01:42:28;;;;;;;17.80;16.05;;;21.50;74.70;;;;;;5924583;29;87496;-71
2022/05/02 01:45:30;;;;;;;17.60;15.80;;;21.50;74.70;;;;;;5923876;29;89062;-71
2022/05/02 01:48:32;;;;;;;17.63;15.93;;;21.50;74.70;;;;;;5923861;29;88094;-72
2022/05/02 01:51:36;;;;;;;18.02;16.33;;;21.50;74.70;;;;;;5922988;29;90151;-71
2022/05/02 01:54:38;;;;;;;17.80;16.10;;;21.40;74.70;;;;;;5923717;29;88031;-72
2022/05/02 01:57:40;;;;;;;17.85;16.15;;;21.40;74.70;;;;;;5924025;29;89097;-71
2022/05/02 02:00:42;;;;;;;18.42;16.73;;;21.50;74.70;;;;;;5927160;29;89069;-71
2022/05/02 02:03:44;;;;;;;17.67;15.98;;;21.40;74.60;;;;;;5927362;29;89212;-71
2022/05/02 02:06:47;;;;;;;19.38;17.42;;;21.40;74.50;;;;;;5927381;29;89065;-72
2022/05/02 02:09:49;;;;;;;17.55;15.85;;;21.50;74.50;;;;;;5927406;29;89217;-72
2022/05/02 02:12:51;;;;;;;17.38;15.75;;;21.50;74.50;;;;;;5927923;29;88402;-71
2022/05/02 02:15:53;;;;;;;19.13;17.23;;;21.50;74.50;;;;;;5927069;29;89136;-71
2022/05/02 02:18:55;;;;;;;18.77;16.98;;;21.50;74.50;;;;;;5926902;29;89137;-72
2022/05/02 02:22:16;;;;;;;17.83;16.02;;;21.50;74.50;;;;;;5926363;29;90020;-70
2022/05/02 02:25:18;;;;;;;18.73;16.88;;;21.40;74.50;;;;;;5926564;29;89208;-72
2022/05/02 02:28:20;;;;;;;18.70;16.90;;;21.50;74.70;;;;;;5926900;29;89492;-71
2022/05/02 02:31:22;;;;;;;18.35;16.63;;;21.50;74.70;;;;;;5926898;29;89029;-72
2022/05/02 02:34:24;;;;;;;17.92;16.13;;;21.40;74.60;;;;;;5926748;29;89195;-71
2022/05/02 02:37:28;;;;;;;18.17;16.45;;;21.50;74.70;;;;;;5926962;29;89148;-71
2022/05/02 02:40:30;;;;;;;18.90;17.00;;;21.40;74.70;;;;;;5905207;29;87940;-72
2022/05/02 02:43:32;;;;;;;18.70;16.90;;;21.40;74.70;;;;;;5905123;29;87289;-71
2022/05/02 02:46:34;;;;;;;19.92;18.02;;;21.40;74.70;;;;;;5904013;29;89150;-72
2022/05/02 02:49:36;;;;;;;18.45;16.65;;;21.40;74.60;;;;;;5903591;29;89068;-72
2022/05/02 02:52:39;;;;;;;19.50;17.60;;;21.40;74.70;;;;;;5903266;29;89794;-72
2022/05/02 02:55:41;;;;;;;18.63;16.83;;;21.40;74.60;;;;;;5903984;29;89425;-71
2022/05/02 02:58:43;;;;;;;19.25;17.45;;;21.40;74.50;;;;;;5904056;29;89169;-71
2022/05/02 03:01:46;;;;;;;18.90;17.10;;;21.40;74.50;;;;;;5904282;29;89170;-71
2022/05/02 03:08:10;;;;;;;19.25;17.35;;;21.40;74.40;;;;;;5904146;29;87244;-71
2022/05/02 03:11:12;;;;;;;18.52;16.73;;;21.40;74.50;;;;;;5902989;29;89097;-71
2022/05/02 03:14:14;;;;;;;18.98;17.15;;;21.40;74.50;;;;;;5904287;29;88665;-69
2022/05/02 03:17:16;;;;;;;19.02;17.13;;;21.40;74.50;;;;;;5914832;29;89391;-71
2022/05/02 03:20:18;;;;;;;19.33;17.42;;;21.40;74.50;;;;;;5926328;29;89412;-71
2022/05/02 03:23:23;;;;;;;19.02;17.23;;;21.40;74.50;;;;;;5925406;29;90143;-70
2022/05/02 03:26:24;;;;;;;19.30;17.40;;;21.40;74.50;;;;;;5925641;29;89596;-72
2022/05/02 03:29:26;;;;;;;19.17;17.38;;;21.40;74.50;;;;;;5925649;29;89541;-71
2022/05/02 03:32:28;;;;;;;18.98;17.10;;;21.40;74.50;;;;;;5926443;29;89238;-71
2022/05/02 03:35:31;;;;;;;19.08;17.17;;;21.40;74.60;;;;;;5925696;29;89281;-71
2022/05/02 03:38:34;;;;;;;18.05;16.35;;;21.40;74.60;;;;;;5925259;29;89061;-72
2022/05/02 03:41:36;;;;;;;20.05;18.05;;;21.40;74.50;;;;;;5925621;29;89026;-70
2022/05/02 03:44:38;;;;;;;18.92;17.10;;;21.40;74.50;;;;;;5926383;29;88380;-71
2022/05/02 03:47:40;;;;;;;18.80;17.00;;;21.40;74.50;;;;;;5925535;29;89230;-72
2022/05/02 03:50:42;;;;;;;18.38;16.63;;;21.40;74.50;;;;;;5925396;29;89050;-72
2022/05/02 03:53:45;;;;;;;19.33;17.50;;;21.40;74.40;;;;;;5924695;29;90087;-72
2022/05/02 03:56:47;;;;;;;19.35;17.45;;;21.40;74.40;;;;;;5925645;29;88016;-72
2022/05/02 03:59:49;;;;;;;18.48;16.67;;;21.40;74.40;;;;;;5925316;29;89009;-72
2022/05/02 04:02:51;;;;;;;18.85;17.05;;;21.40;74.40;;;;;;5925549;29;89099;-73
2022/05/02 04:05:54;;;;;;;19.38;17.48;;;21.40;74.50;;;;;;5925264;29;89140;-72
2022/05/02 04:08:57;;;;;;;18.08;16.38;;;21.40;74.50;;;;;;5925079;29;89261;-72
2022/05/02 04:11:59;;;;;;;18.95;17.05;;;21.40;74.50;;;;;;5926069;29;89469;-70
2022/05/02 04:15:01;;;;;;;18.92;17.13;;;21.40;74.50;;;;;;5925864;29;88264;-72
2022/05/02 04:18:03;;;;;;;17.45;15.70;;;21.40;74.60;;;;;;5924506;29;89071;-72
2022/05/02 04:21:05;;;;;;;18.23;16.45;;;21.40;74.50;;;;;;5924392;29;89196;-72
2022/05/02 04:24:09;;;;;;;18.45;16.60;;;21.40;75.50;;;;;;5923850;29;89974;-73
2022/05/02 04:27:11;;;;;;;18.35;16.55;;;21.40;74.60;;;;;;5925060;29;89145;-71
2022/05/02 04:30:14;;;;;;;17.17;15.48;;;21.30;74.50;;;;;;5924875;29;89127;-71
2022/05/02 04:33:16;;;;;;;17.42;15.80;;;21.40;74.60;;;;;;5924636;29;89425;-72
2022/05/02 04:36:18;;;;;;;17.38;15.68;;;21.40;74.50;;;;;;5925149;29;89030;-71
2022/05/02 04:39:22;;;;;;;17.35;15.65;;;21.40;74.50;;;;;;5925320;29;89103;-72
2022/05/02 04:42:24;;;;;;;17.60;15.90;;;21.40;74.50;;;;;;5924428;29;89112;-70
2022/05/02 04:45:26;;;;;;;16.75;15.13;;;21.40;74.40;;;;;;5925100;29;87202;-71
2022/05/02 04:48:28;;;;;;;17.00;15.40;;;21.40;74.50;;;;;;5925121;29;89113;-72
2022/05/02 04:51:30;;;;;;;16.88;15.27;;;21.40;74.40;;;;;;5924817;29;89118;-71
2022/05/02 04:54:34;;;;;;;16.95;15.35;;;21.40;74.50;;;;;;5924298;29;90036;-72
2022/05/02 04:57:36;;;;;;;17.25;15.50;;;21.40;74.50;;;;;;5924480;29;89110;-72
2022/05/02 05:00:38;;;;;;;16.52;14.93;;;21.40;74.50;;;;;;5924585;29;89212;-72
2022/05/02 05:03:40;;;;;;;16.83;15.20;;;21.40;74.60;;;;;;5924645;29;89019;-71
2022/05/02 05:06:41;;;;;;;16.58;14.98;;;21.40;74.50;;;;;;5924403;29;89099;-72
2022/05/02 05:09:45;;;;;;;16.95;15.35;;;21.40;74.50;;;;;;5924486;29;89095;-72
2022/05/02 05:12:58;;;;;;;15.80;14.20;;;21.40;74.60;;;;;;5924456;29;88980;-72
2022/05/02 05:16:33;;;;;;;15.73;14.23;;;21.40;74.50;;;;;;5925352;29;88548;-71
2022/05/02 05:20:02;;;;;;;15.40;13.90;;;21.40;74.60;;;;;;5924492;29;89155;-72
2022/05/02 05:23:17;;;;;;;15.98;14.48;;;21.40;74.70;;;;;;5922916;29;89176;-72
2022/05/02 05:26:29;;;;;;;16.48;14.88;;;21.40;74.60;;;;;;5923484;29;90000;-72
2022/05/02 05:29:38;;;;;;;15.80;14.27;;;21.40;74.60;;;;;;5924360;29;89310;-72
2022/05/02 05:32:45;;;;;;;15.63;14.13;;;21.40;74.50;;;;;;5923654;29;87912;-73
2022/05/02 05:36:03;;;;;;;15.75;14.25;;;21.40;74.50;;;;;;5928072;29;89098;-71
2022/05/02 05:39:07;;;;;;;16.08;14.50;;;21.40;74.50;;;;;;5928095;29;90254;-71
2022/05/02 05:42:17;;;;;;;15.85;14.35;;;21.40;74.40;;;;;;5927773;29;89407;-72
2022/05/02 05:45:28;;;;;;;14.88;13.43;;;21.40;74.40;;;;;;5928056;29;89373;-72
2022/05/02 05:48:43;;;;;;;14.85;13.45;;;21.40;74.50;;;;;;5928021;29;88445;-73
2022/05/02 05:51:49;;;;;;;15.07;13.68;;;21.40;74.50;;;;;;5927807;29;89223;-72
2022/05/02 05:55:05;;;;;;;14.73;13.32;;;21.40;74.50;;;;;;5927544;29;89145;-72
2022/05/02 05:58:21;;;;;;;15.00;13.57;;;21.40;74.50;;;;;;5926933;29;89953;-72
2022/05/02 06:01:31;;;;;;;14.75;13.32;;;21.40;74.50;;;;;;5927741;29;88898;-70
2022/05/02 06:04:34;;;;;;;15.15;13.75;;;21.40;74.50;;;;;;5927235;29;89061;-72
2022/05/02 06:07:38;;;;;;;14.75;13.35;;;21.40;74.50;;;;;;5927043;29;89437;-71
2022/05/02 06:10:41;;;;;;;14.68;13.27;;;21.40;74.60;;;;;;5927357;29;89199;-72
2022/05/02 06:13:45;;;;;;;13.65;12.32;;;21.40;74.50;;;;;;5927212;29;88001;-72
2022/05/02 06:20:11;;;;;;;14.02;12.63;;;21.40;74.50;;;;;;5927938;29;87243;-71
2022/05/02 06:23:15;;;;;;;13.63;12.40;;;21.40;74.50;;;;;;5927156;29;89564;-71
2022/05/02 06:26:21;;;;;;;14.35;13.05;;;21.50;74.50;;;;;;5927018;29;89349;-71
2022/05/02 06:29:25;;;;;;;14.00;12.70;;;21.50;74.40;;;;;;5926429;29;90090;-70
2022/05/02 06:32:30;;;;;;;13.52;12.23;;;21.50;74.40;;;;;;5927020;29;89472;-71
2022/05/02 06:35:40;;;;;;;13.32;12.13;;;21.50;74.40;;;;;;5926598;29;89370;-70
2022/05/02 06:38:53;;;;;;;13.60;12.30;;;21.50;74.50;;;;;;5926842;29;89440;-71
2022/05/02 06:42:14;;;;;;;13.48;12.23;;;21.50;74.50;;;;;;5926703;29;89291;-71
2022/05/02 06:45:31;;;;;;;12.93;11.70;;;21.50;74.50;;;;;;5925575;29;89147;-70
2022/05/02 06:48:41;;;;;;;13.13;11.88;;;21.50;74.60;;;;;;5926491;29;89151;-71
2022/05/02 06:51:50;;;;;;;12.95;11.75;;;21.50;74.60;;;;;;5927180;29;88457;-71
2022/05/02 06:55:02;;;;;;;13.02;11.82;;;21.40;75.40;;;;;;5927092;29;89494;-70
2022/05/02 06:58:20;;;;;;;12.85;11.65;;;21.40;74.50;;;;;;5926260;29;89425;-71
2022/05/02 07:01:37;;;;;;;12.18;10.98;;;21.50;74.60;;;;;;5926180;29;88912;-71
2022/05/02 07:04:47;;;;;;;12.73;11.52;;;21.40;74.50;;;;;;5926820;29;89405;-71
2022/05/02 07:07:59;;;;;;;12.15;11.05;;;21.50;74.60;;;;;;5926316;29;88002;-70
2022/05/02 07:11:04;;;;;;;11.98;10.88;;;21.50;75.50;;;;;;5926282;29;87944;-70
2022/05/02 07:14:17;;;;;;;12.43;11.23;;;21.50;74.50;;;;;;5925820;29;89165;-71
2022/05/02 07:17:37;;;;;;;11.98;10.88;;;21.50;74.50;;;;;;5926304;29;88003;-70
2022/05/02 07:20:50;;;;;;;12.60;11.40;;;21.60;74.60;;;;;;5926692;29;88001;-70
2022/05/02 07:24:06;;;;;;;11.82;10.75;;;21.50;74.50;;;;;;5927132;29;88409;-71
2022/05/02 07:27:16;;;;;;;11.90;10.80;;;21.50;74.50;;;;;;5925732;29;89315;-70
2022/05/02 07:30:21;;;;;;;11.30;10.30;;;21.50;74.60;;;;;;5925661;29;89148;-70
2022/05/02 07:33:30;;;;;;;11.98;10.85;;;21.50;74.60;;;;;;5925651;29;90081;-70
2022/05/02 07:36:35;;;;;;;11.60;10.50;;;21.50;74.70;;;;;;5925448;29;89329;-71
2022/05/02 07:39:40;;;;;;;11.65;10.50;;;21.50;74.70;;;;;;5925883;29;89088;-70
2022/05/02 07:42:44;;;;;;;11.05;10.05;;;21.50;74.70;;;;;;5926482;29;89107;-71
2022/05/02 07:45:46;;;;;;;11.65;10.55;;;21.50;74.70;;;;;;5925387;29;89161;-70
2022/05/02 07:48:53;;;;;;;11.43;10.40;;;21.50;74.70;;;;;;5926073;29;89138;-70
2022/05/02 07:51:58;;;;;;;11.23;10.23;;;21.50;74.70;;;;;;5926003;29;87994;-71
2022/05/02 07:55:01;;;;;;;11.38;10.32;;;21.50;74.70;;;;;;5926333;29;88704;-70
2022/05/02 07:58:04;;;;;;;11.10;10.10;;;21.50;74.80;;;;;;5925117;29;88016;-70
2022/05/02 08:01:06;;;;;;;11.25;10.20;;;21.50;74.70;;;;;;5925303;29;89093;-70
2022/05/02 08:04:13;;;;;;;11.18;10.07;;;21.50;74.70;;;;;;5924512;29;90156;-70
2022/05/02 08:07:16;;;;;;;10.80;9.80;;;21.50;74.70;;;;;;5925104;29;88004;-72
2022/05/02 08:10:40;;;;;;;11.02;10.02;;;21.50;74.70;;;;;;5925821;29;89417;-70
2022/05/02 08:13:52;;;;;;;10.52;9.60;;;21.50;74.70;;;;;;5924979;29;88024;-70
2022/05/02 08:17:02;;;;;;;10.93;9.93;;;21.60;74.80;;;;;;5925465;29;89470;-70
2022/05/02 08:20:13;;;;;;;10.00;9.10;;;21.60;74.90;;;;;;5925689;29;89074;-71
2022/05/02 08:27:24;;;;;;;10.75;9.75;;;21.50;74.80;;;;;;5891124;29;86647;-71
2022/05/02 08:30:26;;;;;;;10.05;9.15;;;21.50;74.80;;;;;;5925684;29;88014;-71
2022/05/02 08:33:32;;;;;;;10.55;9.55;;;21.50;74.80;;;;;;5925668;29;89138;-71
2022/05/02 08:36:48;;;;;;;10.15;9.25;;;21.50;74.90;;;;;;5924818;29;90188;-70
2022/05/02 08:40:01;;;;;;;10.50;9.40;;;21.50;74.90;;;;;;5925640;29;89088;-71
2022/05/02 08:43:42;;;;;;;10.30;9.40;;;21.50;75.00;;;;;;5925523;29;89134;-70
2022/05/02 08:47:24;;;;;;;10.13;9.23;;;21.50;75.00;;;;;;5925679;29;89429;-71
2022/05/02 08:50:40;;;;;;;10.05;9.05;;;21.50;75.00;;;;;;5925435;29;89499;-71
2022/05/02 08:54:23;;;;;;;10.07;9.18;;;21.50;75.00;;;;;;5925652;29;89168;-73
2022/05/02 08:57:44;;;;;;;9.98;9.07;;;21.50;75.00;;;;;;5925662;29;89786;-71
2022/05/02 09:01:05;;;;;;;9.15;8.35;;;21.50;74.90;;;;;;5924965;29;88649;-71
2022/05/02 09:04:43;;;;;;;9.90;9.00;;;21.50;74.90;;;;;;5925257;29;89046;-69
2022/05/02 09:08:25;;;;;;;9.57;8.73;;;21.50;74.90;;;;;;5923600;29;88280;-70
2022/05/02 09:11:46;;;;;;;9.43;8.57;;;21.50;74.90;;;;;;5928152;29;90204;-70
2022/05/02 09:15:11;;;;;;;9.25;8.45;;;21.50;75.00;;;;;;5929069;29;89159;-71
2022/05/02 09:18:42;;;;;;;9.50;8.70;;;21.50;75.00;;;;;;5929077;29;89086;-71
2022/05/02 09:22:15;;;;;;;9.15;8.35;;;21.60;75.00;;;;;;5928597;29;89151;-70
2022/05/02 09:25:33;;;;;;;9.50;8.65;;;21.60;75.00;;;;;;5928785;29;89442;-71
2022/05/02 09:28:51;;;;;;;9.00;8.20;;;21.50;74.90;;;;;;5928798;29;89162;-70
2022/05/02 09:31:59;;;;;;;9.18;8.38;;;21.50;75.00;;;;;;5928745;29;89153;-71
2022/05/02 09:35:05;;;;;;;9.00;8.20;;;21.50;75.00;;;;;;5929169;29;88602;-71
2022/05/02 09:38:22;;;;;;;9.00;8.20;;;21.50;75.00;;;;;;5929106;29;88035;-70
2022/05/02 09:42:02;;;;;;;9.10;8.30;;;21.50;75.00;;;;;;5928647;29;89038;-70
2022/05/02 09:52:14;;;;;;;8.73;7.93;;;21.50;75.00;;;;;;5929029;29;87356;-70
2022/05/02 09:58:50;;;;;;;8.60;7.80;;;21.60;75.10;;;;;;5928366;29;87416;-71
2022/05/02 10:02:05;;;;;;;8.13;7.43;;;21.50;75.00;;;;;;5928477;29;89185;-71
2022/05/02 10:05:08;;;;;;;8.65;7.85;;;21.60;75.00;;;;;;5928178;29;87717;-70
2022/05/02 10:08:22;;;;;;;8.48;7.68;;;21.50;75.00;;;;;;5928512;29;87303;-71
2022/05/02 10:11:54;;;;;;;8.23;7.50;;;21.60;75.10;;;;;;5927769;29;88162;-71
2022/05/02 10:15:23;;;;;;;8.10;7.40;;;21.50;75.00;;;;;;5924528;29;89158;-71
2022/05/02 10:18:44;;;;;;;8.13;7.43;;;21.60;75.10;;;;;;5926256;29;88945;-71
2022/05/02 10:22:15;;;;;;;7.38;6.78;;;21.50;75.10;;;;;;5927652;29;89281;-70
2022/05/02 10:25:21;;;;;;;7.80;7.10;;;21.50;75.10;;;;;;5928285;29;89201;-71
2022/05/02 10:28:37;;;;;;;7.97;7.28;;;21.50;75.10;;;;;;5927878;29;89101;-68
2022/05/02 10:31:40;;;;;;;7.70;7.00;;;21.50;75.10;;;;;;5927194;29;89557;-70
2022/05/02 10:34:47;;;;;;;7.80;7.10;;;21.50;75.10;;;;;;5927616;29;89161;-71
2022/05/02 10:37:58;;;;;;;7.63;6.93;;;21.50;75.10;;;;;;5927864;29;89069;-70
2022/05/02 10:41:10;;;;;;;7.40;6.80;;;21.60;75.00;;;;;;5928306;29;88561;-69
2022/05/02 10:44:16;;;;;;;7.78;6.97;;;21.50;75.00;;;;;;5927764;29;88011;-70
2022/05/02 10:47:21;;;;;;;7.70;7.00;;;21.60;75.10;;;;;;5927814;29;89357;-70
2022/05/02 10:50:28;;;;;;;7.60;6.95;;;21.60;75.10;;;;;;5926749;29;90063;-71
2022/05/02 10:53:51;;;;;;;8.15;7.45;;;21.50;75.00;;;;;;5927659;29;88047;-71
2022/05/02 10:57:00;;;;;;;7.80;7.10;;;21.60;75.10;;;;;;5927722;29;89222;-70
2022/05/02 11:00:06;;;;;;;7.20;6.60;;;21.60;75.20;;;;;;5926978;29;89065;-71
2022/05/02 11:03:29;;;;;;;7.80;7.10;;;21.50;75.00;;;;;;5926105;29;88204;-71
2022/05/02 11:06:45;;;;;;;7.57;6.88;;;21.50;75.10;;;;;;5927140;29;89190;-71
2022/05/02 11:10:07;;;;;;;7.15;6.55;;;21.50;75.10;;;;;;5927213;29;89375;-70
2022/05/02 11:13:20;;;;;;;7.43;6.78;;;21.50;75.00;;;;;;5927225;29;87277;-71
2022/05/02 11:16:27;;;;;;;7.25;6.65;;;21.50;75.10;;;;;;5926705;29;89064;-70
2022/05/02 11:23:25;;;;;;;7.18;6.57;;;21.50;75.10;;;;;;5926471;29;88296;-70
2022/05/02 11:26:37;;;;;;;7.47;6.78;;;21.60;75.10;;;;;;5926643;29;89144;-70
2022/05/02 11:29:51;;;;;;;6.55;6.00;;;21.50;75.00;;;;;;5926123;29;89393;-71
2022/05/02 11:33:15;;;;;;;6.97;6.38;;;21.60;75.00;;;;;;5925714;29;89135;-71
2022/05/02 11:36:24;;;;;;;6.78;6.18;;;21.60;75.00;;;;;;5926776;29;89095;-71
2022/05/02 11:39:41;;;;;;;6.72;6.03;;;21.60;75.90;;;;;;5926387;29;88897;-71
2022/05/02 11:42:46;;;;;;;6.90;6.30;;;21.60;75.00;;;;;;5926649;29;89564;-71
2022/05/02 11:45:55;;;;;;;7.00;6.40;;;21.60;75.00;;;;;;5927078;29;88255;-70
2022/05/02 11:49:34;;;;;;;6.45;5.88;;;21.60;75.00;;;;;;5926886;29;89599;-71
2022/05/02 11:52:38;;;;;;;6.85;6.25;;;21.50;75.00;;;;;;5923234;29;90028;-70
2022/05/02 11:55:44;;;;;;;6.63;6.03;;;21.60;75.00;;;;;;5926033;29;90099;-71
2022/05/02 11:58:47;;;;;;;6.63;6.03;;;21.60;75.00;;;;;;5926234;29;89476;-71
2022/05/02 12:01:56;;;;;;;7.15;6.55;;;21.50;75.00;;;;;;5926238;29;89185;-71
2022/05/02 12:05:01;;;;;;;6.72;6.13;;;21.50;75.00;;;;;;5926066;29;89353;-70
2022/05/02 12:08:05;;;;;;;6.40;5.80;;;21.50;75.00;;;;;;5926097;29;89483;-71
2022/05/02 12:11:10;;;;;;;6.70;6.10;;;21.50;75.00;;;;;;5926093;29;89237;-71
2022/05/02 12:14:19;;;;;;;6.07;5.57;;;21.50;75.00;;;;;;5926042;29;89254;-70
2022/05/02 12:17:21;;;;;;;6.70;6.10;;;21.60;75.00;;;;;;5926195;29;88368;-70
2022/05/02 12:20:24;;;;;;;6.07;5.57;;;21.50;74.80;;;;;;5925807;29;88016;-71
2022/05/02 12:23:33;;;;;;;6.47;5.90;;;21.60;74.90;;;;;;5926273;29;89093;-70
2022/05/02 12:26:45;;;;;;;6.55;5.95;;;21.60;74.90;;;;;;5924716;29;90554;-70
2022/05/02 12:29:57;;;;;;;6.00;5.50;;;21.60;74.90;;;;;;5925567;29;89196;-70
2022/05/02 12:33:01;;;;;;;6.47;5.88;;;21.60;74.90;;;;;;5924865;29;89469;-72
2022/05/02 12:36:04;;;;;;;5.90;5.40;;;21.60;74.90;;;;;;5925683;29;89151;-72
2022/05/02 12:39:14;;;;;;;6.28;5.70;;;21.60;74.90;;;;;;5925267;29;88312;-72
2022/05/02 12:42:19;;;;;;;6.72;5.80;;;21.60;75.00;;;;;;5917286;29;89306;-73
2022/05/02 12:45:23;;;;;;;6.63;5.90;;;21.60;75.60;;;;;;5924465;29;89140;-72
2022/05/02 12:48:30;;;;;;;6.30;5.80;;;21.60;75.50;;;;;;5930895;29;88729;-73
2022/05/02 12:51:33;;;;;;;5.70;5.20;;;21.60;75.40;;;;;;5936302;29;89093;-72
2022/05/02 12:54:35;;;;;;;6.68;5.88;;;21.60;75.40;;;;;;5925287;29;89091;-73
2022/05/02 13:01:04;;;;;;;6.10;5.60;;;21.60;75.40;;;;;;5934330;29;87349;-73
2022/05/02 13:04:14;;;;;;;6.50;5.45;;;21.60;75.30;;;;;;5947574;29;89171;-73
2022/05/02 13:07:16;;;;;;;6.20;5.68;;;21.60;75.30;;;;;;5947724;29;87953;-73
2022/05/02 13:10:20;;;;;;;5.70;5.20;;;21.60;75.30;;;;;;5947575;29;89019;-73
2022/05/02 13:13:39;;;;;;;5.90;5.40;;;21.60;75.20;;;;;;5946958;29;88641;-74
2022/05/02 13:16:45;;;;;;;5.85;5.35;;;21.60;75.20;;;;;;5940968;29;89421;-73
2022/05/02 13:19:49;;;;;;;6.18;5.60;;;21.60;75.20;;;;;;5925629;29;88294;-74
2022/05/02 13:23:03;;;;;;;5.55;5.05;;;21.60;75.30;;;;;;5924876;29;89235;-74
2022/05/02 13:26:30;;;;;;;5.85;5.35;;;21.60;75.30;;;;;;5924876;29;89072;-73
2022/05/02 13:30:00;;;;;;;5.57;5.05;;;21.60;75.40;;;;;;5924443;29;90188;-74
2022/05/02 13:33:06;;;;;;;5.30;4.90;;;21.60;75.40;;;;;;5925805;29;89525;-73
2022/05/02 13:36:08;;;;;;;6.45;5.00;;;21.60;75.40;;;;;;5946921;29;89468;-74
2022/05/02 13:39:15;;;;;;;5.60;5.10;;;21.60;75.80;;;;;;5941154;29;89347;-72
2022/05/02 13:42:34;;;;;;;6.00;5.20;;;21.60;76.10;;;;;;5938795;29;89177;-73
2022/05/02 13:45:42;;;;;;;5.57;5.07;;;21.60;76.10;;;;;;5923881;29;89255;-73
2022/05/02 13:49:03;;;;;;;5.38;4.88;;;21.60;76.00;;;;;;5923923;29;89126;-75
2022/05/02 13:52:26;;;;;;;5.93;4.97;;;21.60;75.90;;;;;;5941677;29;88418;-74
2022/05/02 13:55:31;;;;;;;5.35;4.85;;;21.70;76.10;;;;;;5949094;29;89314;-72
2022/05/02 13:59:01;;;;;;;5.35;4.88;;;21.70;76.20;;;;;;5932964;29;89058;-72
2022/05/02 14:02:11;;;;;;;7.88;4.88;;;21.70;76.20;;;;;;5922972;29;90413;-73
2022/05/02 14:05:24;;;;;;;6.68;4.88;;;21.70;76.90;;;;;;5926214;29;89268;-74
2022/05/02 14:08:42;;;;;;;5.45;4.93;;;21.70;76.80;;;;;;5947870;29;89111;-73
2022/05/02 14:11:43;;;;;;;5.10;4.60;;;21.70;76.50;;;;;;5925950;29;89160;-73
2022/05/02 14:14:56;;;;;;;6.47;5.05;;;21.70;76.40;;;;;;5919760;29;88994;-73
2022/05/02 14:21:20;;;;;;;6.60;4.45;;;21.70;77.10;;;;;;5915294;29;87474;-74
2022/05/02 14:24:22;;;;;;;5.25;4.72;;;21.70;77.40;;;;;;5927518;29;88441;-71
2022/05/02 14:27:24;;;;;;;7.70;4.78;;;21.70;78.70;;;;;;5927381;29;89433;-72
2022/05/02 14:30:26;;;;;;;6.72;4.55;;;21.70;78.60;;;;;;5927313;29;89090;-73
2022/05/02 14:33:36;;;;;;;5.13;4.30;;;21.70;77.90;;;;;;5926430;29;89921;-73
2022/05/02 14:36:41;;;;;;;5.20;4.38;;;21.70;77.60;;;;;;5925338;29;89076;-72
2022/05/02 14:39:44;;;;;;;6.22;4.30;;;21.80;77.40;;;;;;5926365;29;89241;-73
2022/05/02 14:42:46;;;;;;;4.82;4.15;;;21.80;77.40;;;;;;5926463;29;88001;-73
2022/05/02 14:45:50;;;;;;;5.43;4.35;;;21.80;77.40;;;;;;5909306;29;88467;-73
2022/05/02 14:48:54;;;;;;;7.10;4.38;;;21.80;77.20;;;;;;5917840;29;89053;-73
2022/05/02 14:52:01;;;;;;;5.15;4.30;;;21.80;77.30;;;;;;5916540;29;89012;-73
2022/05/02 14:55:04;;;;;;;4.65;4.22;;;21.80;77.10;;;;;;5923459;29;87458;-73
2022/05/02 14:58:10;;;;;;;4.60;4.20;;;21.80;77.10;;;;;;5914839;29;88012;-73
2022/05/02 15:01:14;;;;;;;9.70;4.57;;;21.80;77.10;;;;;;5905293;29;89042;-72
2022/05/02 15:04:20;;;;;;;4.88;4.30;;;21.80;77.10;;;;;;5924498;29;90091;-70
2022/05/02 15:07:30;;;;;;;4.70;4.20;;;21.80;77.10;;;;;;5925397;29;89261;-72
2022/05/02 15:10:51;;;;;;;5.40;4.20;;;21.80;77.10;;;;;;5934789;29;88327;-72
2022/05/02 15:14:34;;;;;;;5.22;4.13;;;21.80;77.20;;;;;;5910052;29;88058;-72
2022/05/02 15:17:40;;;;;;;6.40;4.53;;;21.80;77.10;;;;;;5921448;29;89158;-72
2022/05/02 15:20:46;;;;;;;4.60;4.20;;;21.80;77.10;;;;;;5920615;29;89519;-74
2022/05/02 15:23:48;;;;;;;5.15;4.20;;;21.80;77.10;;;;;;5915571;29;89156;-73
2022/05/02 15:26:51;;;;;;;5.10;3.83;;;21.80;77.10;;;;;;5914989;29;88518;-73
2022/05/02 15:36:55;;;;;;;5.50;4.10;;;21.80;76.80;;;;;;5912595;29;89072;-73
2022/05/02 15:39:57;;;;;;;5.20;3.83;;;21.80;76.70;;;;;;5911880;29;89146;-73
2022/05/02 15:43:19;;;;;;;4.30;3.53;;;21.80;76.70;;;;;;5904764;29;89511;-71
2022/05/02 15:46:21;;;;;;;4.00;3.63;;;21.80;76.70;;;;;;5911927;29;88981;-71
2022/05/02 15:49:25;;;;;;;5.00;3.83;;;21.80;76.70;;;;;;5913206;29;89220;-71
2022/05/02 15:52:30;;;;;;;4.20;3.80;;;21.80;76.70;;;;;;5924779;29;89013;-74
2022/05/02 15:55:57;;;;;;;4.10;3.70;;;21.80;76.70;;;;;;5904197;29;89040;-72
2022/05/02 15:59:01;;;;;;;4.20;3.40;;;21.80;77.70;;;;;;5911266;29;88389;-73
2022/05/02 16:02:04;;;;;;;6.07;3.70;;;21.80;76.70;;;;;;5904165;29;89090;-74
2022/05/02 16:05:12;;;;;;;4.40;3.40;;;21.80;76.60;;;;;;5904987;29;88408;-75
2022/05/02 16:11:41;;;;;;;4.95;3.67;;;21.80;76.50;;;;;;5906268;29;87373;-74
2022/05/02 16:14:45;;;;;;;4.90;3.30;;;21.80;76.40;;;;;;5901864;29;90858;-74
2022/05/02 16:17:49;;;;;;;3.95;3.55;;;21.80;76.60;;;;;;5909490;29;87999;-73
2022/05/02 16:20:51;;;;;;;4.95;3.42;;;21.90;76.50;;;;;;5924934;29;89238;-73
2022/05/02 16:23:57;;;;;;;4.40;3.78;;;21.80;76.40;;;;;;5924602;29;89581;-72
2022/05/02 16:27:02;;;;;;;3.80;3.50;;;21.90;76.50;;;;;;5912037;29;88061;-73
2022/05/02 16:30:07;;;;;;;3.78;3.47;;;21.80;76.40;;;;;;5914479;29;88386;-70
2022/05/02 16:33:18;;;;;;;4.43;3.40;;;21.80;76.40;;;;;;5921747;29;89296;-73
2022/05/02 16:36:26;;;;;;;6.72;3.50;;;21.80;76.40;;;;;;5916671;29;89194;-73
2022/05/02 16:39:30;;;;;;;4.97;3.35;;;21.80;76.50;;;;;;5913929;29;90003;-71
2022/05/02 16:42:37;;;;;;;3.40;3.13;;;21.80;76.40;;;;;;5917493;29;89089;-72
2022/05/02 16:45:39;;;;;;;3.78;3.42;;;21.80;76.40;;;;;;5924344;29;89065;-72
2022/05/02 16:48:41;;;;;;;4.20;3.53;;;21.80;76.40;;;;;;5919852;29;89513;-73